Time;durP1;ratioP1;P1;durP2;ratioP2;P2;SDS_P1;SDS_P2;PMS_P1;PMS_P2;Temp;Humidity;BMP_temperature;BMP_pressure;BME280_temperature;BME280_humidity;BME280_pressure;Samples;Min_cycle;Max_cycle;Signal;HPM_P1;HPM_P2
2022/06/22 00:01:33;;;;;;;2.75;2.42;;;;;;;12.82;72.83;99994.58;3375470;83;20996;-82
2022/06/22 00:06:35;;;;;;;2.55;2.30;;;;;;;12.78;72.88;99994.17;3405593;81;21196;-83
2022/06/22 00:11:27;;;;;;;2.70;2.45;;;;;;;12.75;72.97;99996.78;3436426;81;21008;-83
2022/06/22 00:16:26;;;;;;;2.40;1.82;;;;;;;12.70;73.03;100003.78;3371994;81;22282;-83
2022/06/22 00:21:43;;;;;;;3.42;2.05;;;;;;;12.66;73.06;99999.42;3415474;81;20963;-83
2022/06/22 00:26:36;;;;;;;4.25;2.55;;;;;;;12.61;73.20;99999.88;3393982;81;21015;-82
2022/06/22 00:31:45;;;;;;;2.90;2.12;;;;;;;12.58;73.24;99991.63;3378944;81;22659;-82
2022/06/22 00:37:03;;;;;;;2.47;2.10;;;;;;;12.52;73.31;99995.13;3413096;81;20944;-83
2022/06/22 00:42:26;;;;;;;4.12;2.50;;;;;;;12.46;73.40;100000.34;3381553;81;20881;-82
2022/06/22 00:47:45;;;;;;;2.27;2.08;;;;;;;12.41;73.56;100020.34;3427079;82;21011;-82
2022/06/22 00:52:42;;;;;;;2.20;2.00;;;;;;;12.31;73.67;100032.97;3449692;82;20987;-82
2022/06/22 00:57:40;;;;;;;3.83;2.37;;;;;;;12.30;73.97;100033.83;3440347;81;22191;-82
2022/06/22 01:02:50;;;;;;;2.87;2.00;;;;;;;12.24;73.91;100027.33;3431764;81;21082;-82
2022/06/22 01:08:02;;;;;;;3.15;1.90;;;;;;;12.23;74.03;100020.37;3317681;85;21032;-82
2022/06/22 01:12:58;;;;;;;3.12;1.98;;;;;;;12.17;74.18;100022.11;3321908;85;21071;-82
2022/06/22 01:18:01;;;;;;;2.30;1.97;;;;;;;12.12;74.18;100023.84;3294241;85;21632;-83
2022/06/22 01:22:57;;;;;;;2.10;1.85;;;;;;;12.09;74.22;100018.66;3309616;85;21372;-83
2022/06/22 01:27:49;;;;;;;2.30;1.98;;;;;;;12.05;74.25;100010.38;3311123;85;21623;-82
2022/06/22 01:32:43;;;;;;;2.37;2.12;;;;;;;12.03;74.37;100015.17;3259881;86;21018;-82
2022/06/22 01:37:34;;;;;;;5.72;2.17;;;;;;;11.97;74.30;100009.09;3330353;85;21509;-82
2022/06/22 01:42:37;;;;;;;2.72;2.20;;;;;;;11.92;74.64;99995.64;3317425;81;21216;-82
2022/06/22 01:47:52;;;;;;;2.37;2.17;;;;;;;11.90;74.61;99990.84;3405003;82;21864;-83
2022/06/22 01:52:55;;;;;;;2.98;2.70;;;;;;;11.85;74.61;99996.48;3407576;81;21001;-82
2022/06/22 01:58:03;;;;;;;6.55;2.35;;;;;;;11.79;74.85;99991.70;3425484;82;20984;-82
2022/06/22 02:03:06;;;;;;;2.80;2.60;;;;;;;11.78;74.93;99995.16;3340744;84;21011;-82
2022/06/22 02:08:05;;;;;;;2.75;2.45;;;;;;;11.75;74.97;99999.08;3282017;84;21214;-82
2022/06/22 02:13:31;;;;;;;2.37;2.22;;;;;;;11.68;74.92;100005.16;3331798;84;21213;-82
2022/06/22 02:18:39;;;;;;;2.77;2.55;;;;;;;11.65;75.23;100012.95;3315777;84;21493;-82
2022/06/22 02:23:34;;;;;;;2.25;2.05;;;;;;;11.63;75.24;100008.18;3318087;84;21547;-82
2022/06/22 02:28:25;;;;;;;5.00;2.27;;;;;;;11.59;75.33;100017.72;3312306;84;21506;-82
2022/06/22 02:33:17;;;;;;;2.70;2.15;;;;;;;11.54;75.36;100022.05;3291291;84;20992;-82
2022/06/22 02:38:11;;;;;;;4.33;2.30;;;;;;;11.56;75.67;100037.67;3337456;81;21473;-82
2022/06/22 02:48:25;;;;;;;4.87;2.42;;;;;;;11.53;75.47;100040.27;3365805;82;20911;-82
2022/06/22 02:53:24;;;;;;;2.60;2.08;;;;;;;11.54;75.72;100054.59;3377272;84;20987;-82
2022/06/22 02:58:33;;;;;;;3.30;2.55;;;;;;;11.52;75.82;100052.83;3371644;82;21227;-82
2022/06/22 03:03:25;;;;;;;2.77;2.50;;;;;;;11.52;75.91;100048.92;3438648;81;21911;-82
2022/06/22 03:08:19;;;;;;;2.75;2.55;;;;;;;11.56;76.06;100049.39;3442743;82;21487;-82
2022/06/22 03:13:17;;;;;;;3.00;2.70;;;;;;;11.91;76.28;100057.70;3373658;82;21616;-82
2022/06/22 03:18:24;;;;;;;3.70;2.87;;;;;;;13.18;75.71;100064.49;3408680;82;20965;-82
2022/06/22 03:23:26;;;;;;;2.52;2.33;;;;;;;14.74;74.12;100073.44;3403410;82;20988;-83
2022/06/22 03:28:25;;;;;;;3.12;2.67;;;;;;;16.47;72.03;100059.26;3392774;83;20979;-83
2022/06/22 03:33:27;;;;;;;4.30;2.65;;;;;;;17.85;69.41;100047.69;3387583;83;20972;-83
2022/06/22 03:38:24;;;;;;;3.27;2.50;;;;;;;18.92;66.92;100049.38;3420687;82;20992;-84
2022/06/22 03:43:27;;;;;;;2.37;2.20;;;;;;;19.46;64.93;100050.47;3407645;83;20954;-84
2022/06/22 03:48:32;;;;;;;4.37;2.92;;;;;;;18.97;63.69;100043.53;3401741;82;21011;-83
2022/06/22 03:53:35;;;;;;;5.15;2.80;;;;;;;17.49;64.70;100042.38;3447931;82;21127;-83
2022/06/22 03:58:26;;;;;;;3.45;2.65;;;;;;;16.46;65.59;100049.67;3357748;84;21561;-83
2022/06/22 04:03:19;;;;;;;3.58;3.10;;;;;;;15.64;66.73;100057.04;3405614;82;20936;-83
2022/06/22 04:08:28;;;;;;;3.67;2.80;;;;;;;15.05;67.79;100061.32;3401663;82;20972;-83
2022/06/22 04:13:36;;;;;;;4.90;2.95;;;;;;;14.59;68.93;100067.05;3469497;82;21395;-83
2022/06/22 04:18:35;;;;;;;3.22;2.85;;;;;;;14.23;69.80;100073.01;3458244;80;21188;-83
2022/06/22 04:23:38;;;;;;;3.52;3.05;;;;;;;14.05;70.60;100071.41;3458709;80;21043;-83
2022/06/22 04:28:33;;;;;;;2.92;2.58;;;;;;;13.97;71.05;100081.03;3412082;82;20987;-83
2022/06/22 04:33:33;;;;;;;3.75;2.90;;;;;;;13.94;71.59;100086.30;3434821;82;21033;-83
2022/06/22 04:38:54;;;;;;;3.70;3.10;;;;;;;13.87;72.05;100078.94;3436919;82;22139;-83
2022/06/22 04:43:46;;;;;;;4.87;3.27;;;;;;;13.87;72.31;100086.33;3436373;82;21253;-83
2022/06/22 04:48:47;;;;;;;6.20;2.95;;;;;;;13.92;72.76;100096.77;3440159;82;21533;-83
2022/06/22 04:53:58;;;;;;;2.98;2.77;;;;;;;13.98;72.72;100092.79;3401667;82;20956;-83
2022/06/22 04:58:53;;;;;;;4.37;3.15;;;;;;;14.10;72.80;100102.30;3391224;82;21606;-82
2022/06/22 05:03:44;;;;;;;2.83;2.62;;;;;;;14.23;72.72;100095.23;3405688;82;20968;-81
2022/06/22 05:08:44;;;;;;;3.75;3.45;;;;;;;14.33;72.59;100083.83;3338585;83;20987;-82
2022/06/22 05:13:43;;;;;;;3.27;2.98;;;;;;;14.38;72.53;100091.61;3385149;84;21032;-81
2022/06/22 05:18:37;;;;;;;3.42;2.92;;;;;;;14.42;72.66;100075.89;3429898;81;21004;-81
2022/06/22 05:23:31;;;;;;;3.85;2.40;;;;;;;14.58;72.61;100086.26;3405319;82;20944;-81
2022/06/22 05:28:33;;;;;;;3.90;2.92;;;;;;;14.82;72.11;100091.67;3395272;82;20983;-82
2022/06/22 05:33:27;;;;;;;5.53;3.10;;;;;;;15.29;71.24;100095.94;3429110;81;21032;-82
2022/06/22 05:38:21;;;;;;;4.05;2.85;;;;;;;15.36;71.30;100094.98;3400086;82;20959;-82
2022/06/22 05:43:12;;;;;;;5.17;2.95;;;;;;;16.43;69.20;100096.95;3438232;81;20996;-82
2022/06/22 05:48:05;;;;;;;6.00;3.25;;;;;;;16.99;68.48;100094.20;3382136;81;21229;-82
2022/06/22 05:53:05;;;;;;;4.20;2.65;;;;;;;16.67;68.77;100091.28;3363327;81;20941;-82
2022/06/22 05:58:10;;;;;;;5.65;3.30;;;;;;;16.98;68.42;100090.73;3414161;81;22553;-82
2022/06/22 06:03:45;;;;;;;5.35;2.87;;;;;;;17.05;67.47;100094.97;3413659;81;21506;-82
2022/06/22 06:08:47;;;;;;;2.83;2.37;;;;;;;16.71;68.11;100103.89;3407130;81;20972;-82
2022/06/22 06:13:46;;;;;;;4.90;3.17;;;;;;;16.59;68.00;100107.59;3441944;81;21394;-82
2022/06/22 06:18:41;;;;;;;6.03;3.17;;;;;;;16.51;67.85;100109.05;3452492;81;20996;-82
2022/06/22 06:23:50;;;;;;;5.30;2.45;;;;;;;16.58;67.65;100110.67;3423389;81;22812;-82
2022/06/22 06:29:08;;;;;;;2.67;2.33;;;;;;;16.63;67.64;100108.41;3410526;81;20988;-82
2022/06/22 06:34:01;;;;;;;2.92;2.30;;;;;;;16.86;67.22;100108.88;3397349;82;21008;-82
2022/06/22 06:39:09;;;;;;;4.45;2.33;;;;;;;16.96;66.64;100103.03;3381803;81;21488;-82
2022/06/22 06:44:14;;;;;;;7.40;2.50;;;;;;;17.14;66.45;100089.98;3430628;81;20986;-82
2022/06/22 06:49:19;;;;;;;3.47;2.80;;;;;;;17.36;66.40;100096.97;3427611;82;21035;-83
2022/06/22 06:54:37;;;;;;;2.65;2.17;;;;;;;17.49;65.94;100072.59;3384038;84;21130;-82
2022/06/22 06:59:31;;;;;;;3.65;2.80;;;;;;;18.05;64.55;100084.09;3434102;82;21017;-83
2022/06/22 07:04:29;;;;;;;2.72;2.25;;;;;;;18.44;64.21;100097.17;3414673;82;21105;-83
2022/06/22 07:09:31;;;;;;;6.45;2.55;;;;;;;18.67;63.39;100085.59;3441474;82;21572;-84
2022/06/22 07:14:31;;;;;;;2.12;1.98;;;;;;;18.57;63.81;100092.00;3433146;82;22022;-86
2022/06/22 07:19:30;;;;;;;3.62;1.82;;;;;;;18.71;62.58;100096.02;3436289;82;21565;-85
2022/06/22 07:24:45;;;;;;;2.70;2.20;;;;;;;19.09;61.89;100090.22;3409816;82;20961;-86
2022/06/22 07:30:04;;;;;;;2.37;2.05;;;;;;;20.94;59.56;100100.66;3436973;82;21401;-85
2022/06/22 07:35:00;;;;;;;2.60;2.10;;;;;;;24.39;53.63;100090.89;3371120;83;20980;-83
2022/06/22 07:40:08;;;;;;;3.00;2.25;;;;;;;28.79;47.82;100076.84;3429212;82;21366;-83
2022/06/22 07:45:00;;;;;;;2.72;2.20;;;;;;;31.48;44.41;100084.14;3429356;80;20924;-82
2022/06/22 07:50:00;;;;;;;3.30;2.17;;;;;;;33.38;41.90;100089.73;3324215;83;20965;-81
2022/06/22 07:55:01;;;;;;;2.67;2.12;;;;;;;34.94;37.82;100074.47;3444140;82;21509;-80
2022/06/22 08:00:18;;;;;;;7.40;2.87;;;;;;;35.54;36.39;100069.67;3397147;82;21016;-80
2022/06/22 08:05:17;;;;;;;2.20;1.70;;;;;;;36.15;35.50;100070.82;3419802;81;21097;-81
2022/06/22 08:10:14;;;;;;;3.27;1.92;;;;;;;33.83;34.97;100074.97;3369255;82;21443;-81
2022/06/22 08:15:11;;;;;;;1.60;1.50;;;;;;;30.82;37.52;100087.09;3375259;83;21094;-82
2022/06/22 08:20:03;;;;;;;2.25;1.60;;;;;;;30.61;36.23;100085.13;3385822;82;20917;-80
2022/06/22 08:24:56;;;;;;;1.50;1.40;;;;;;;31.47;35.44;100078.36;3331057;84;21024;-80
2022/06/22 08:29:49;;;;;;;2.90;2.05;;;;;;;33.80;33.17;100085.05;3387569;83;21460;-79
2022/06/22 08:34:49;;;;;;;1.90;1.70;;;;;;;35.73;31.11;100083.61;3346978;83;20971;-81
2022/06/22 08:39:48;;;;;;;2.08;1.80;;;;;;;36.49;29.36;100075.52;3461874;82;20970;-81
2022/06/22 08:44:54;;;;;;;3.25;1.82;;;;;;;37.08;28.67;100093.36;3414397;82;20980;-81
2022/06/22 08:50:19;;;;;;;2.15;1.40;;;;;;;37.90;28.08;100078.30;3444517;82;20881;-81
2022/06/22 08:55:22;;;;;;;3.85;1.42;;;;;;;38.70;27.68;100074.93;3435657;82;22286;-80
2022/06/22 09:00:31;;;;;;;1.52;1.42;;;;;;;38.32;26.12;100071.06;3420588;81;21054;-81
2022/06/22 09:05:53;;;;;;;1.80;1.70;;;;;;;38.40;25.33;100079.21;3387101;83;20999;-80
2022/06/22 09:11:17;;;;;;;1.20;1.10;;;;;;;38.59;25.26;100077.17;3480208;82;38622;-79
2022/06/22 09:16:29;;;;;;;1.92;1.35;;;;;;;35.78;25.96;100090.77;3378792;84;21010;-80
2022/06/22 09:21:57;;;;;;;1.92;1.47;;;;;;;33.09;28.46;100082.36;3454062;82;21198;-80
2022/06/22 09:26:54;;;;;;;2.60;1.40;;;;;;;31.33;29.96;100088.02;3401832;82;21482;-80
2022/06/22 09:32:03;;;;;;;2.00;1.62;;;;;;;31.61;29.86;100091.20;3369627;84;21000;-79
2022/06/22 09:37:14;;;;;;;1.70;1.60;;;;;;;32.81;28.47;100087.95;3295364;86;21024;-80
2022/06/22 09:42:17;;;;;;;4.53;1.80;;;;;;;33.81;27.37;100088.09;3260158;86;21031;-80
2022/06/22 09:47:22;;;;;;;2.10;1.47;;;;;;;30.21;30.21;100105.57;3236536;87;21058;-79
2022/06/22 09:52:23;;;;;;;;;;;;;;;31.98;29.47;100096.23;3249942;86;21044;-83
2022/06/22 09:57:34;;;;;;;2.85;1.95;;;;;;;33.68;28.09;100091.55;3271866;86;20161;-83
2022/06/22 10:02:52;;;;;;;2.17;1.47;;;;;;;34.45;28.38;100087.69;3265500;86;21002;-81
2022/06/22 10:08:09;;;;;;;3.58;2.00;;;;;;;34.15;27.77;100086.34;3216891;87;21001;-83
2022/06/22 10:13:11;;;;;;;1.62;1.52;;;;;;;35.71;26.24;100089.67;3322493;84;20985;-83
2022/06/22 10:18:40;;;;;;;1.87;1.57;;;;;;;35.74;25.76;100086.64;3410015;83;20960;-81
2022/06/22 10:24:02;;;;;;;3.47;2.02;;;;;;;33.61;28.36;100093.06;3408151;83;21020;-78
2022/06/22 10:29:23;;;;;;;5.45;1.60;;;;;;;32.78;28.96;100098.97;3376045;83;21077;-78
2022/06/22 10:34:25;;;;;;;3.20;1.60;;;;;;;33.52;28.27;100087.13;3403525;82;21078;-83
2022/06/22 10:39:52;;;;;;;2.37;1.67;;;;;;;30.58;30.40;100090.72;3351925;85;21509;-82
2022/06/22 10:45:10;;;;;;;4.25;1.55;;;;;;;30.16;30.83;100091.16;3411935;83;20920;-82
2022/06/22 10:50:09;;;;;;;4.95;2.52;;;;;;;32.30;28.61;100093.09;3208101;87;21029;-82
2022/06/22 10:55:53;;;;;;;3.35;1.87;;;;;;;30.02;30.56;100096.70;3272895;87;21040;-82
2022/06/22 11:01:04;;;;;;;3.17;1.67;;;;;;;30.23;31.06;100091.56;3262674;86;21642;-79
2022/06/22 11:06:12;;;;;;;2.98;2.37;;;;;;;30.08;32.05;100085.50;3246499;87;21051;-79
2022/06/22 11:11:44;;;;;;;3.27;2.37;;;;;;;29.23;32.75;100081.42;3230156;86;21002;-79
2022/06/22 11:16:53;;;;;;;2.70;1.52;;;;;;;28.55;34.06;100083.41;3274977;86;21583;-82
2022/06/22 11:22:06;;;;;;;3.12;1.80;;;;;;;27.43;33.96;100096.05;3270575;86;21065;-80
2022/06/22 11:32:59;;;;;;;3.75;2.00;;;;;;;27.07;35.53;100079.55;3191542;88;21836;-80
2022/06/22 11:38:31;;;;;;;3.05;1.70;;;;;;;26.28;36.58;100091.85;3208980;88;21607;-79
2022/06/22 11:44:00;;;;;;;2.98;2.10;;;;;;;26.78;37.41;100086.67;3201948;88;21140;-79
2022/06/22 11:49:38;;;;;;;3.17;1.92;;;;;;;27.26;36.88;100070.38;3281314;86;21123;-79
2022/06/22 11:54:47;;;;;;;2.05;1.72;;;;;;;27.58;37.91;100069.23;3315383;85;21647;-84
2022/06/22 11:59:59;;;;;;;3.58;2.08;;;;;;;26.65;36.68;100085.69;3359201;84;22210;-83
2022/06/22 12:05:14;;;;;;;3.70;1.70;;;;;;;27.01;37.44;100079.45;3359841;84;20954;-84
2022/06/22 12:10:31;;;;;;;3.85;2.00;;;;;;;27.49;37.42;100079.63;3368350;83;21576;-83
2022/06/22 12:15:46;;;;;;;2.52;1.80;;;;;;;26.91;36.56;100079.62;3350597;84;21027;-85
2022/06/22 12:20:55;;;;;;;2.85;1.90;;;;;;;26.45;37.43;100083.70;3380753;83;20978;-87
2022/06/22 12:26:08;;;;;;;2.35;2.02;;;;;;;27.23;37.58;100078.59;3244487;86;21798;-86
2022/06/22 12:31:05;;;;;;;3.40;1.67;;;;;;;27.86;35.78;100075.93;3249161;85;21021;-85
2022/06/22 12:36:25;;;;;;;2.85;1.77;;;;;;;27.81;35.65;100069.54;3271903;86;21015;-86
2022/06/22 12:41:37;;;;;;;3.35;1.80;;;;;;;28.17;36.57;100076.59;3289882;86;20976;-82
2022/06/22 12:47:00;;;;;;;3.17;2.00;;;;;;;27.67;35.90;100073.13;3250587;86;21274;-86
2022/06/22 12:52:10;;;;;;;3.87;2.02;;;;;;;27.68;36.67;100074.83;3263800;85;22609;-84
2022/06/22 12:57:13;;;;;;;2.22;2.00;;;;;;;27.73;36.26;100080.73;3332169;84;21565;-85
2022/06/22 13:02:15;;;;;;;3.08;1.75;;;;;;;27.93;35.23;100073.27;3419348;82;20995;-84
2022/06/22 13:07:11;;;;;;;3.22;1.80;;;;;;;28.04;35.20;100070.73;3409098;82;21031;-84
2022/06/22 13:12:13;;;;;;;2.70;1.80;;;;;;;27.66;35.09;100066.06;3388261;82;20967;-84
2022/06/22 13:17:29;;;;;;;2.15;1.72;;;;;;;26.75;35.66;100073.52;3400990;83;22595;-80
2022/06/22 13:22:54;;;;;;;2.33;2.03;;;;;;;26.19;36.90;100071.45;3374230;83;20940;-84
2022/06/22 13:28:11;;;;;;;2.52;1.80;;;;;;;26.88;36.22;100066.50;3443124;82;20987;-82
2022/06/22 13:33:34;;;;;;;2.30;1.40;;;;;;;27.19;36.85;100051.25;3407699;82;21453;-84
2022/06/22 13:38:34;;;;;;;2.33;1.90;;;;;;;27.06;36.53;100050.29;3446981;82;21131;-85
2022/06/22 13:43:42;;;;;;;2.60;1.45;;;;;;;27.51;36.07;100051.05;3466034;82;22097;-81
2022/06/22 13:48:59;;;;;;;2.50;1.65;;;;;;;27.77;36.26;100040.84;3443253;81;21011;-83
2022/06/22 13:54:31;;;;;;;4.80;1.80;;;;;;;28.10;35.93;100044.95;3375358;83;20960;-81
2022/06/22 13:59:52;;;;;;;2.35;1.65;;;;;;;27.65;35.69;100048.80;3447434;81;20983;-83
2022/06/22 14:04:49;;;;;;;2.00;1.90;;;;;;;26.55;36.22;100067.55;3400948;82;20963;-85
2022/06/22 14:10:04;;;;;;;2.90;1.77;;;;;;;25.91;36.08;100061.97;3444711;80;21051;-82
2022/06/22 14:15:28;;;;;;;1.77;1.65;;;;;;;26.37;37.31;100060.66;3435237;81;21035;-84
2022/06/22 14:20:40;;;;;;;4.60;1.87;;;;;;;26.35;37.14;100055.91;3482127;80;20952;-80
2022/06/22 14:25:52;;;;;;;2.37;1.70;;;;;;;27.04;36.77;100060.20;3404500;81;21038;-81
2022/06/22 14:30:55;;;;;;;2.00;1.70;;;;;;;26.01;37.30;100054.73;3410993;81;20964;-83
2022/06/22 14:36:09;;;;;;;2.87;1.70;;;;;;;25.23;37.72;100047.08;3430013;82;21149;-80
2022/06/22 14:41:41;;;;;;;3.85;1.70;;;;;;;24.85;38.79;100046.03;3484008;81;20987;-83
2022/06/22 14:46:38;;;;;;;1.87;1.45;;;;;;;25.75;38.25;100035.36;3342105;84;22256;-82
2022/06/22 14:51:43;;;;;;;3.95;1.65;;;;;;;25.80;38.41;100046.61;3322956;85;20996;-86
2022/06/22 14:56:45;;;;;;;2.50;1.70;;;;;;;25.47;38.75;100047.10;3334935;82;21050;-87
2022/06/22 15:01:42;;;;;;;2.55;1.80;;;;;;;25.79;37.74;100044.88;3362876;82;21194;-86
2022/06/22 15:06:56;;;;;;;2.10;1.70;;;;;;;26.14;37.00;100040.22;3403510;84;20971;-93
2022/06/22 15:17:21;;;;;;;;;;;;;;;26.00;36.67;100034.84;3401541;83;20988;-81
2022/06/22 15:22:37;;;;;;;3.45;1.60;;;;;;;26.31;37.21;100053.02;3275892;84;20439;-83
2022/06/22 15:27:37;;;;;;;2.37;1.52;;;;;;;26.12;37.06;100047.44;3335454;84;21575;-82
2022/06/22 15:32:38;;;;;;;1.67;1.50;;;;;;;25.44;37.45;100041.94;3330933;84;20970;-81
2022/06/22 15:37:44;;;;;;;3.58;2.08;;;;;;;25.87;38.76;100057.30;3321504;84;21133;-82
2022/06/22 15:43:16;;;;;;;2.93;1.60;;;;;;;26.03;37.43;100059.97;3308870;84;21031;-79
2022/06/22 15:48:31;;;;;;;3.80;2.25;;;;;;;25.43;38.28;100066.85;3300629;85;20985;-81
2022/06/22 15:53:40;;;;;;;2.20;1.65;;;;;;;24.99;38.65;100069.23;3299628;85;21549;-82
2022/06/22 15:58:45;;;;;;;2.27;2.05;;;;;;;24.97;39.18;100066.65;3362834;82;20992;-83
2022/06/22 16:03:56;;;;;;;2.00;1.80;;;;;;;24.67;38.89;100071.78;3368837;82;20995;-83
2022/06/22 16:09:05;;;;;;;1.85;1.42;;;;;;;24.46;39.42;100067.91;3372198;84;20934;-85
2022/06/22 16:14:14;;;;;;;2.70;1.65;;;;;;;24.86;39.45;100069.00;3384315;82;21103;-82
2022/06/22 16:19:13;;;;;;;2.27;2.00;;;;;;;24.99;39.25;100060.77;3385919;82;21307;-86
2022/06/22 16:24:21;;;;;;;1.85;1.30;;;;;;;24.70;39.04;100072.47;3437655;82;20996;-90
2022/06/22 16:29:30;;;;;;;2.02;1.90;;;;;;;24.38;39.21;100073.22;3464161;82;20940;-91
2022/06/22 16:35:02;;;;;;;2.40;2.22;;;;;;;24.10;39.98;100071.95;3420212;82;20971;-89
2022/06/22 16:40:36;;;;;;;1.95;1.60;;;;;;;24.39;40.03;100078.94;3365808;83;20960;-86
2022/06/22 16:45:57;;;;;;;6.70;4.22;;;;;;;24.86;39.44;100079.62;3433521;82;21334;-86
2022/06/22 16:51:11;;;;;;;2.00;1.80;;;;;;;25.12;39.14;100067.62;3444426;81;20952;-87
2022/06/22 16:56:04;;;;;;;2.87;2.67;;;;;;;25.11;38.90;100073.41;3413215;82;20972;-89
2022/06/22 17:01:03;;;;;;;3.47;1.60;;;;;;;25.08;38.80;100077.56;3334316;83;20968;-90
2022/06/22 17:06:12;;;;;;;5.25;2.30;;;;;;;24.78;39.15;100089.34;3419272;82;21462;-88
2022/06/22 17:11:08;;;;;;;2.15;1.67;;;;;;;24.69;38.94;100090.67;3355368;84;20995;-88
2022/06/22 17:16:10;;;;;;;1.77;1.60;;;;;;;24.61;39.09;100080.94;3441009;82;21030;-81
2022/06/22 17:21:41;;;;;;;1.98;1.77;;;;;;;24.66;39.47;100078.02;3387397;83;20955;-83
2022/06/22 17:26:46;;;;;;;2.62;1.80;;;;;;;24.54;38.94;100072.41;3461279;81;21035;-81
2022/06/22 17:31:54;;;;;;;3.93;1.60;;;;;;;24.32;39.40;100075.72;3388938;82;21052;-83
2022/06/22 17:37:18;;;;;;;2.02;1.67;;;;;;;24.13;39.84;100074.47;3423586;81;21015;-82
2022/06/22 17:42:29;;;;;;;1.77;1.67;;;;;;;24.00;40.03;100081.30;3369825;82;21015;-82
2022/06/22 17:47:31;;;;;;;1.80;1.70;;;;;;;23.77;40.01;100072.65;3414379;81;21556;-82
2022/06/22 17:52:28;;;;;;;4.12;2.05;;;;;;;23.53;40.25;100082.14;3417022;81;21489;-82
2022/06/22 17:57:28;;;;;;;6.22;2.22;;;;;;;23.44;40.79;100087.03;3389697;83;21497;-81
2022/06/22 18:02:52;;;;;;;2.30;2.02;;;;;;;23.27;40.87;100087.35;3393740;82;22117;-83
2022/06/22 18:07:47;;;;;;;1.95;1.82;;;;;;;23.00;41.21;100092.05;3219687;87;21489;-80
2022/06/22 18:12:43;;;;;;;2.35;1.77;;;;;;;22.80;41.55;100101.77;3207587;86;20983;-81
2022/06/22 18:17:36;;;;;;;2.70;1.80;;;;;;;22.62;41.93;100102.54;3214527;87;21632;-80
2022/06/22 18:22:57;;;;;;;3.80;1.57;;;;;;;22.36;42.31;100101.02;3208794;87;21654;-81
2022/06/22 18:27:57;;;;;;;3.00;1.87;;;;;;;22.12;42.85;100107.66;3194414;88;21887;-80
2022/06/22 18:32:52;;;;;;;1.82;1.72;;;;;;;21.88;43.20;100106.40;3203672;87;21697;-80
2022/06/22 18:38:00;;;;;;;2.90;1.75;;;;;;;21.74;43.79;100111.37;3209568;87;21168;-80
2022/06/22 18:43:09;;;;;;;4.08;1.50;;;;;;;21.61;43.81;100122.05;3267741;85;20967;-81
2022/06/22 18:48:12;;;;;;;2.72;1.85;;;;;;;21.46;44.29;100120.81;3345585;84;20952;-81
2022/06/22 18:53:11;;;;;;;2.55;1.57;;;;;;;21.33;45.01;100124.35;3335447;85;21182;-80
2022/06/22 18:58:19;;;;;;;1.98;1.80;;;;;;;21.17;45.32;100133.77;3318711;85;21055;-81
2022/06/22 19:03:30;;;;;;;9.88;2.47;;;;;;;20.94;45.26;100138.97;3339543;83;21011;-80
2022/06/22 19:08:30;;;;;;;3.02;2.42;;;;;;;20.79;46.50;100153.16;3318110;84;21052;-80
2022/06/22 19:13:29;;;;;;;4.90;2.10;;;;;;;20.57;47.69;100154.71;3353529;83;21015;-81
2022/06/22 19:18:57;;;;;;;8.65;2.37;;;;;;;20.28;48.16;100167.55;3320311;84;21050;-80
2022/06/22 19:24:23;;;;;;;6.85;2.20;;;;;;;19.94;48.63;100170.36;3390181;84;21490;-80
2022/06/22 19:29:28;;;;;;;4.45;1.75;;;;;;;19.70;49.36;100174.11;3336030;83;20980;-80
2022/06/22 19:34:55;;;;;;;12.55;2.42;;;;;;;19.50;49.95;100175.16;3377583;84;21318;-79
2022/06/22 19:39:57;;;;;;;8.40;2.33;;;;;;;19.34;50.51;100178.21;3331754;84;21086;-80
2022/06/22 19:45:12;;;;;;;2.35;1.92;;;;;;;19.17;50.88;100172.53;3345066;82;21038;-80
2022/06/22 19:50:32;;;;;;;6.08;2.08;;;;;;;18.99;51.54;100187.95;3466032;81;20940;-80
2022/06/22 19:55:46;;;;;;;3.47;2.52;;;;;;;18.81;51.67;100184.42;3433659;81;20980;-81
2022/06/22 20:00:42;;;;;;;4.55;2.17;;;;;;;18.58;52.25;100186.30;3405212;83;20944;-80
2022/06/22 20:05:50;;;;;;;3.45;2.37;;;;;;;18.41;52.69;100191.99;3419321;82;21004;-81
2022/06/22 20:10:56;;;;;;;2.80;1.80;;;;;;;18.31;53.15;100190.47;3363912;82;21577;-80
2022/06/22 20:16:28;;;;;;;3.85;2.47;;;;;;;18.14;53.21;100185.16;3427866;82;21561;-78
2022/06/22 20:21:46;;;;;;;4.12;2.50;;;;;;;18.00;53.55;100192.48;3455877;81;20900;-80
2022/06/22 20:26:57;;;;;;;2.40;2.08;;;;;;;17.84;54.09;100201.98;3444669;81;21011;-80
2022/06/22 20:32:09;;;;;;;3.52;2.42;;;;;;;17.74;54.56;100208.31;3357547;83;21055;-79
2022/06/22 20:37:15;;;;;;;3.40;2.60;;;;;;;17.63;55.10;100207.68;3371449;83;21033;-80
2022/06/22 20:42:33;;;;;;;2.85;2.55;;;;;;;17.50;55.53;100220.20;3446301;82;20979;-79
2022/06/22 20:47:54;;;;;;;2.62;2.22;;;;;;;17.37;55.98;100217.41;3261005;85;22008;-81
2022/06/22 20:52:54;;;;;;;2.47;2.27;;;;;;;17.23;56.35;100226.86;3223925;86;21019;-80
2022/06/22 20:57:53;;;;;;;2.72;2.27;;;;;;;17.11;56.75;100231.41;3191805;87;20983;-80
2022/06/22 21:02:50;;;;;;;2.90;2.52;;;;;;;17.07;57.17;100234.14;3183525;87;22725;-80
2022/06/22 21:07:42;;;;;;;5.03;3.35;;;;;;;16.99;57.71;100243.47;3195873;89;21370;-80
2022/06/22 21:12:59;;;;;;;5.25;2.92;;;;;;;16.91;57.97;100236.16;3179154;88;21608;-80
2022/06/22 21:17:51;;;;;;;6.15;3.52;;;;;;;16.81;58.08;100246.34;3205740;87;21075;-80
2022/06/22 21:22:42;;;;;;;3.12;2.20;;;;;;;16.72;58.63;100246.94;3212171;86;21067;-80
2022/06/22 21:27:49;;;;;;;2.75;2.47;;;;;;;16.69;58.86;100245.66;3328546;83;21502;-80
2022/06/22 21:32:41;;;;;;;4.72;2.70;;;;;;;16.65;59.14;100254.48;3409991;83;20940;-80
2022/06/22 21:37:39;;;;;;;4.33;2.83;;;;;;;16.56;59.30;100250.66;3346971;83;20964;-80
2022/06/22 21:42:51;;;;;;;3.00;2.80;;;;;;;16.51;59.55;100249.89;3369530;83;21047;-80
2022/06/22 21:48:26;;;;;;;3.27;2.20;;;;;;;16.41;59.78;100253.53;3373157;83;20981;-80
2022/06/22 21:53:46;;;;;;;2.92;2.55;;;;;;;16.35;60.09;100257.11;3341289;82;21251;-80
2022/06/22 21:59:07;;;;;;;3.17;2.42;;;;;;;16.32;60.30;100260.63;3302987;83;21048;-80
2022/06/22 22:04:03;;;;;;;2.85;2.55;;;;;;;16.29;60.88;100265.91;3286030;85;21004;-80
2022/06/22 22:09:00;;;;;;;4.42;3.00;;;;;;;16.25;60.83;100270.78;3364230;83;21568;-80
2022/06/22 22:13:54;;;;;;;2.92;2.60;;;;;;;16.24;60.77;100274.31;3379773;83;21012;-80
2022/06/22 22:18:49;;;;;;;4.15;2.83;;;;;;;16.19;61.07;100270.42;3389023;83;21000;-80
2022/06/22 22:23:45;;;;;;;4.42;3.20;;;;;;;16.14;61.04;100271.37;3354693;83;20980;-80
2022/06/22 22:28:46;;;;;;;6.28;3.20;;;;;;;16.05;61.26;100279.38;3370230;82;20972;-80
2022/06/22 22:33:39;;;;;;;2.72;2.47;;;;;;;15.97;61.56;100289.51;3399835;82;20959;-80
2022/06/22 22:38:36;;;;;;;4.42;2.87;;;;;;;15.89;61.84;100290.03;3406498;82;21003;-80
2022/06/22 22:43:57;;;;;;;4.83;3.55;;;;;;;15.82;62.23;100285.74;3422693;81;21186;-80
2022/06/22 22:49:15;;;;;;;6.35;3.30;;;;;;;15.72;62.58;100292.83;3453909;81;20955;-80
2022/06/22 22:54:26;;;;;;;4.62;3.33;;;;;;;15.68;63.17;100292.86;3377559;82;21484;-80
2022/06/22 22:59:17;;;;;;;3.47;3.17;;;;;;;15.55;63.25;100295.61;3410593;82;20982;-80
2022/06/22 23:04:23;;;;;;;3.77;3.30;;;;;;;15.51;63.72;100291.73;3465999;82;22024;-81
2022/06/22 23:09:18;;;;;;;5.62;3.27;;;;;;;15.42;64.02;100294.86;3404835;83;20937;-80
2022/06/22 23:14:24;;;;;;;3.75;3.40;;;;;;;15.35;64.32;100297.56;3447790;82;21446;-80
2022/06/22 23:19:36;;;;;;;6.37;3.40;;;;;;;15.33;64.58;100296.72;3440637;82;20966;-80
2022/06/22 23:24:26;;;;;;;4.20;3.67;;;;;;;15.28;64.67;100294.58;3427000;81;20955;-80
2022/06/22 23:29:19;;;;;;;8.75;4.85;;;;;;;15.18;64.86;100292.02;3446158;82;21427;-80
2022/06/22 23:34:37;;;;;;;10.08;7.47;;;;;;;15.12;65.16;100288.15;3452033;82;21252;-81
2022/06/22 23:39:31;;;;;;;10.95;7.53;;;;;;;15.05;65.22;100286.47;3444711;82;22094;-81
2022/06/22 23:44:22;;;;;;;10.93;8.30;;;;;;;14.99;65.50;100291.77;3361484;83;21430;-80
2022/06/22 23:49:16;;;;;;;9.80;7.45;;;;;;;14.94;65.68;100285.70;3429067;82;20939;-81
2022/06/22 23:54:20;;;;;;;9.18;7.33;;;;;;;14.89;65.75;100284.86;3430234;82;20995;-81
2022/06/22 23:59:19;;;;;;;10.38;8.40;;;;;;;14.82;65.85;100287.95;3465877;82;21271;-80
